createdAt,value
2022-08-03T00:02:05.875Z,100365.89
2022-08-03T00:06:16.135Z,100365.86
2022-08-03T00:10:23.607Z,100371.91
2022-08-03T00:14:31.309Z,100372.29
2022-08-03T00:18:39.272Z,100373.79
2022-08-03T00:22:46.707Z,100374.62
2022-08-03T00:26:54.187Z,100370.52
2022-08-03T00:31:02.084Z,100368.73
2022-08-03T00:35:24.141Z,100372.86
2022-08-03T00:39:41.031Z,100373.27
2022-08-03T00:43:49.457Z,100373.39
2022-08-03T00:47:57.476Z,100376.05
2022-08-03T00:52:09.516Z,100374.86
2022-08-03T00:56:18.428Z,100371.83
2022-08-03T01:00:27.693Z,100374.14
2022-08-03T01:04:35.664Z,100372.90
2022-08-03T01:08:49.249Z,100375.41
2022-08-03T01:13:02.595Z,100376.45
2022-08-03T01:17:16.669Z,100373.70
2022-08-03T01:21:40.273Z,100380.11
2022-08-03T01:26:01.170Z,100372.14
2022-08-03T01:30:11.281Z,100369.45
2022-08-03T01:34:21.359Z,100370.41
2022-08-03T01:38:33.703Z,100369.64
2022-08-03T01:42:43.421Z,100364.84
2022-08-03T01:46:52.353Z,100361.35
2022-08-03T01:51:00.978Z,100359.52
2022-08-03T01:55:10.629Z,100360.02
2022-08-03T01:59:21.388Z,100359.35
2022-08-03T02:03:29.778Z,100352.89
2022-08-03T02:07:37.929Z,100353.26
2022-08-03T02:11:46.962Z,100351.23
2022-08-03T02:15:55.785Z,100355.84
2022-08-03T02:20:07.059Z,100360.33
2022-08-03T02:24:15.224Z,100361.56
2022-08-03T02:28:23.972Z,100360.13
2022-08-03T02:32:35.560Z,100353.91
2022-08-03T02:36:44.590Z,100352.59
2022-08-03T02:40:52.959Z,100350.05
2022-08-03T02:45:03.898Z,100351.27
2022-08-03T02:49:41.037Z,100351.17
2022-08-03T02:53:42.184Z,100348.16
2022-08-03T02:57:51.062Z,100348.02
2022-08-03T03:02:00.624Z,100345.13
2022-08-03T03:06:09.401Z,100354.15
2022-08-03T03:10:17.217Z,100357.35
2022-08-03T03:14:33.959Z,100356.17
2022-08-03T03:18:42.881Z,100357.23
2022-08-03T03:22:51.568Z,100358.27
2022-08-03T03:26:59.754Z,100362.70
2022-08-03T03:31:08.522Z,100358.86
2022-08-03T03:35:17.386Z,100361.52
2022-08-03T03:39:25.368Z,100361.44
2022-08-03T03:43:32.980Z,100361.93
2022-08-03T03:47:40.837Z,100356.66
2022-08-03T03:51:48.450Z,100355.69
2022-08-03T03:56:02.208Z,100361.24
2022-08-03T04:00:13.382Z,100366.05
2022-08-03T04:04:38.569Z,100365.12
2022-08-03T04:09:15.365Z,100367.92
2022-08-03T04:13:24.640Z,100369.91
2022-08-03T04:17:34.150Z,100373.52
2022-08-03T04:21:45.166Z,100372.89
2022-08-03T04:25:54.395Z,100373.50
2022-08-03T04:30:02.626Z,100377.17
2022-08-03T04:34:10.936Z,100380.79
2022-08-03T04:38:20.368Z,100381.46
2022-08-03T04:42:29.280Z,100381.67
2022-08-03T04:46:40.624Z,100386.89
2022-08-03T04:50:58.412Z,100389.44
2022-08-03T04:55:06.976Z,100388.84
2022-08-03T04:59:14.792Z,100389.96
2022-08-03T05:03:25.000Z,100391.16
2022-08-03T05:07:36.302Z,100389.71
2022-08-03T05:11:44.297Z,100387.04
2022-08-03T05:15:53.119Z,100389.57
2022-08-03T05:20:00.807Z,100389.14
2022-08-03T05:24:10.173Z,100382.27
2022-08-03T05:28:17.916Z,100382.05
2022-08-03T05:32:25.501Z,100383.10
2022-08-03T05:36:33.428Z,100382.18
2022-08-03T05:40:56.669Z,100387.35
2022-08-03T05:45:16.302Z,100386.04
2022-08-03T05:49:28.726Z,100389.23
2022-08-03T05:53:39.893Z,100392.34
2022-08-03T05:57:59.906Z,100395.00
2022-08-03T06:02:08.237Z,100397.63
2022-08-03T06:06:19.934Z,100396.95
2022-08-03T06:10:36.449Z,100401.17
2022-08-03T06:14:47.666Z,100406.46
2022-08-03T06:18:59.195Z,100407.55
2022-08-03T06:23:17.779Z,100404.63
2022-08-03T06:27:37.298Z,100401.91
2022-08-03T06:31:49.582Z,100397.75
2022-08-03T06:36:00.723Z,100395.11
2022-08-03T06:40:15.259Z,100398.41
2022-08-03T06:44:29.645Z,100399.98
2022-08-03T06:48:39.546Z,100400.50
2022-08-03T06:52:46.875Z,100401.16
2022-08-03T06:57:02.766Z,100403.13
2022-08-03T07:01:10.440Z,100404.98
2022-08-03T07:05:25.149Z,100401.52
2022-08-03T07:09:36.562Z,100401.51
2022-08-03T07:13:48.103Z,100398.65
2022-08-03T07:17:59.874Z,100396.80
2022-08-03T07:22:18.252Z,100400.22
2022-08-03T07:26:29.452Z,100397.17
2022-08-03T07:30:42.451Z,100394.77
2022-08-03T07:34:49.961Z,100392.09
2022-08-03T07:39:17.362Z,100389.49
2022-08-03T07:43:28.185Z,100384.86
2022-08-03T07:47:43.185Z,100381.92
2022-08-03T07:52:22.070Z,100383.45
2022-08-03T07:56:38.906Z,100385.87
2022-08-03T08:00:47.711Z,100383.23
2022-08-03T08:04:55.122Z,100385.13
2022-08-03T08:09:02.414Z,100381.09
2022-08-03T08:13:10.232Z,100378.94
2022-08-03T08:17:18.123Z,100378.75
2022-08-03T08:21:26.540Z,100379.36
2022-08-03T08:25:56.563Z,100379.67
2022-08-03T08:30:12.256Z,100384.15
2022-08-03T08:34:20.103Z,100383.69
2022-08-03T08:38:29.512Z,100381.95
2022-08-03T08:42:36.933Z,100380.48
2022-08-03T08:46:44.858Z,100377.35
2022-08-03T08:50:55.816Z,100379.21
2022-08-03T08:55:05.238Z,100381.32
2022-08-03T08:59:48.381Z,100378.02
2022-08-03T09:03:59.071Z,100381.80
2022-08-03T09:08:08.864Z,100379.90
2022-08-03T09:12:39.183Z,100377.19
2022-08-03T09:17:02.260Z,100371.00
2022-08-03T09:21:32.956Z,100371.81
2022-08-03T09:25:43.953Z,100367.01
2022-08-03T09:29:53.086Z,100367.86
2022-08-03T09:34:02.476Z,100369.48
2022-08-03T09:38:15.484Z,100359.45
2022-08-03T09:42:27.654Z,100358.70
2022-08-03T09:46:40.985Z,100358.54
2022-08-03T09:51:12.749Z,100355.51
2022-08-03T09:56:33.783Z,100355.08
2022-08-03T10:00:03.058Z,100357.38
2022-08-03T10:04:17.428Z,100353.45
2022-08-03T10:08:26.621Z,100348.86
2022-08-03T10:12:34.429Z,100344.27
2022-08-03T10:16:43.515Z,100337.20
2022-08-03T10:20:53.653Z,100334.35
2022-08-03T10:25:04.726Z,100332.95
2022-08-03T10:29:16.770Z,100332.04
2022-08-03T10:33:49.652Z,100333.34
2022-08-03T10:38:01.211Z,100326.20
2022-08-03T10:42:13.513Z,100331.05
2022-08-03T10:46:24.530Z,100324.31
2022-08-03T10:50:32.099Z,100324.59
2022-08-03T10:55:03.474Z,100320.08
2022-08-03T10:59:27.418Z,100320.80
2022-08-03T11:03:36.374Z,100319.48
2022-08-03T11:07:44.236Z,100310.44
2022-08-03T11:12:29.867Z,100312.60
2022-08-03T11:16:42.287Z,100309.34
2022-08-03T11:20:54.663Z,100309.54
2022-08-03T11:25:04.909Z,100305.95
2022-08-03T11:29:31.840Z,100300.36
2022-08-03T11:33:40.973Z,100297.47
2022-08-03T11:38:07.307Z,100294.52
2022-08-03T11:42:41.914Z,100295.06
2022-08-03T11:46:49.665Z,100287.83
2022-08-03T11:51:00.104Z,100286.95
2022-08-03T11:55:12.534Z,100282.11
2022-08-03T11:59:22.340Z,100283.41
2022-08-03T12:03:35.542Z,100277.69
2022-08-03T12:08:03.476Z,100274.05
2022-08-03T12:12:12.372Z,100274.32
2022-08-03T12:16:25.681Z,100268.02
2022-08-03T12:20:35.520Z,100261.13
2022-08-03T12:24:47.637Z,100258.90
2022-08-03T12:28:55.751Z,100253.61
2022-08-03T12:33:03.308Z,100249.02
2022-08-03T12:37:22.293Z,100249.87
2022-08-03T12:41:36.137Z,100253.33
2022-08-03T12:45:45.304Z,100250.52
2022-08-03T12:49:54.322Z,100244.04
2022-08-03T12:54:03.679Z,100242.11
2022-08-03T12:58:14.750Z,100239.20
2022-08-03T13:02:27.961Z,100240.10
2022-08-03T13:06:35.748Z,100237.27
2022-08-03T13:10:44.621Z,100236.28
2022-08-03T13:14:54.719Z,100237.85
2022-08-03T13:19:03.068Z,100233.98
2022-08-03T13:23:12.992Z,100233.86
2022-08-03T13:28:03.679Z,100233.38
2022-08-03T13:31:59.553Z,100232.71
2022-08-03T13:36:12.217Z,100230.80
2022-08-03T13:40:23.599Z,100231.39
2022-08-03T13:44:31.441Z,100230.72
2022-08-03T13:48:39.311Z,100229.80
2022-08-03T13:52:48.224Z,100222.15
2022-08-03T13:57:00.680Z,100219.84
2022-08-03T14:01:53.526Z,100216.17
2022-08-03T14:05:54.808Z,100209.42
2022-08-03T14:10:03.413Z,100205.64
2022-08-03T14:14:10.720Z,100203.96
2022-08-03T14:18:29.253Z,100201.42
2022-08-03T14:22:43.173Z,100195.61
2022-08-03T14:26:50.760Z,100195.17
2022-08-03T14:30:59.706Z,100196.23
2022-08-03T14:35:09.141Z,100191.79
2022-08-03T14:39:17.501Z,100188.62
2022-08-03T14:43:25.140Z,100180.65
2022-08-03T14:48:23.371Z,100179.36
2022-08-03T14:52:04.074Z,100174.73
2022-08-03T14:56:11.450Z,100173.95
2022-08-03T15:00:19.866Z,100174.67
2022-08-03T15:04:27.241Z,100169.23
2022-08-03T15:08:34.710Z,100163.81
2022-08-03T15:12:42.052Z,100169.27
2022-08-03T15:16:49.878Z,100159.89
2022-08-03T15:20:57.556Z,100161.09
2022-08-03T15:26:04.056Z,100158.34
2022-08-03T15:30:04.967Z,100149.39
2022-08-03T15:34:03.279Z,100152.20
2022-08-03T15:38:11.120Z,100145.17
2022-08-03T15:42:18.971Z,100143.70
2022-08-03T15:46:29.745Z,100142.59
2022-08-03T15:50:38.114Z,100143.27
2022-08-03T15:54:45.949Z,100144.88
2022-08-03T15:59:03.154Z,100143.45
2022-08-03T16:03:21.362Z,100136.83
2022-08-03T16:08:03.459Z,100136.09
2022-08-03T16:12:16.154Z,100131.09
2022-08-03T16:16:24.554Z,100127.11
2022-08-03T16:20:35.023Z,100124.34
2022-08-03T16:24:43.520Z,100121.58
2022-08-03T16:28:51.212Z,100120.34
2022-08-03T16:32:58.532Z,100120.34
2022-08-03T16:37:28.485Z,100119.41
2022-08-03T16:41:53.976Z,100114.23
2022-08-03T16:46:05.012Z,100112.89
2022-08-03T16:50:19.507Z,100120.08
2022-08-03T16:54:27.962Z,100116.64
2022-08-03T16:58:42.404Z,100120.41
2022-08-03T17:02:54.824Z,100122.02
2022-08-03T17:07:04.805Z,100122.82
2022-08-03T17:11:12.748Z,100125.43
2022-08-03T17:15:37.987Z,100123.38
2022-08-03T17:19:55.168Z,100128.73
2022-08-03T17:24:12.047Z,100125.20
2022-08-03T17:28:49.199Z,100128.61
2022-08-03T17:32:56.646Z,100134.14
2022-08-03T17:37:06.214Z,100136.77
2022-08-03T17:41:14.711Z,100139.64
2022-08-03T17:45:24.115Z,100141.59
2022-08-03T17:49:52.512Z,100143.60
2022-08-03T17:54:18.137Z,100142.86
2022-08-03T17:58:34.841Z,100144.00
2022-08-03T18:03:06.297Z,100145.32
2022-08-03T18:07:19.860Z,100142.52
2022-08-03T18:11:35.638Z,100147.98
2022-08-03T18:15:48.728Z,100148.46
2022-08-03T18:20:03.427Z,100153.09
2022-08-03T18:24:13.989Z,100159.64
2022-08-03T18:28:23.497Z,100162.84
2022-08-03T18:32:31.249Z,100165.36
2022-08-03T18:36:41.107Z,100171.04
2022-08-03T18:40:49.588Z,100171.11
2022-08-03T18:44:57.672Z,100174.77
2022-08-03T18:49:14.341Z,100179.79
2022-08-03T18:54:02.632Z,100184.31
2022-08-03T18:58:17.515Z,100184.02
2022-08-03T19:02:34.491Z,100188.02
2022-08-03T19:06:47.371Z,100191.83
2022-08-03T19:11:00.833Z,100197.15
2022-08-03T19:15:12.596Z,100198.25
2022-08-03T19:19:22.769Z,100197.34
2022-08-03T19:23:34.074Z,100196.33
2022-08-03T19:27:43.451Z,100194.48
2022-08-03T19:31:57.955Z,100191.59
2022-08-03T19:36:10.673Z,100190.37
2022-08-03T19:40:19.845Z,100194.80
2022-08-03T19:44:32.495Z,100195.59
2022-08-03T19:48:44.741Z,100192.30
2022-08-03T19:52:53.201Z,100198.92
2022-08-03T19:57:02.042Z,100198.24
2022-08-03T20:01:21.243Z,100201.59
2022-08-03T20:05:29.563Z,100203.98
2022-08-03T20:09:56.470Z,100204.64
2022-08-03T20:14:05.371Z,100206.67
2022-08-03T20:22:48.250Z,100214.22
2022-08-03T20:26:57.914Z,100218.48
2022-08-03T20:31:05.578Z,100218.58
2022-08-03T20:35:14.225Z,100218.55
2022-08-03T20:39:21.948Z,100213.16
2022-08-03T20:43:30.169Z,100216.37
2022-08-03T20:47:50.254Z,100213.04
2022-08-03T20:51:58.514Z,100213.27
2022-08-03T20:56:11.327Z,100211.23
2022-08-03T21:00:22.638Z,100213.41
2022-08-03T21:04:30.455Z,100216.43
2022-08-03T21:08:46.937Z,100217.29
2022-08-03T21:13:03.878Z,100207.40
2022-08-03T21:13:15.178Z,100218.14
2022-08-03T21:17:40.004Z,100218.67
2022-08-03T21:21:50.965Z,100220.49
2022-08-03T21:25:59.949Z,100218.45
2022-08-03T21:30:10.754Z,100214.87
2022-08-03T21:34:18.260Z,100218.20
2022-08-03T21:38:30.183Z,100223.91
2022-08-03T21:42:38.135Z,100221.94
2022-08-03T21:46:45.879Z,100220.09
2022-08-03T21:50:54.015Z,100220.76
2022-08-03T21:55:04.818Z,100220.16
2022-08-03T21:59:17.228Z,100216.68
2022-08-03T22:03:27.881Z,100221.47
2022-08-03T22:07:36.835Z,100222.14
2022-08-03T22:11:44.611Z,100220.71
2022-08-03T22:15:52.546Z,100217.63
2022-08-03T22:19:59.916Z,100217.85
2022-08-03T22:24:09.481Z,100221.11
2022-08-03T22:28:17.624Z,100217.77
2022-08-03T22:32:25.033Z,100223.45
2022-08-03T22:36:33.575Z,100224.41
2022-08-03T22:40:42.107Z,100222.35
2022-08-03T22:44:50.519Z,100217.20
2022-08-03T22:48:58.613Z,100222.13
2022-08-03T22:53:06.528Z,100224.80
2022-08-03T22:57:14.442Z,100223.97
2022-08-03T23:01:26.543Z,100223.06
2022-08-03T23:06:00.955Z,100221.39
2022-08-03T23:10:06.761Z,100218.27
2022-08-03T23:14:16.597Z,100216.44
2022-08-03T23:18:26.363Z,100217.12
2022-08-03T23:22:36.451Z,100211.66
2022-08-03T23:26:44.540Z,100217.73
2022-08-03T23:30:52.712Z,100214.67
2022-08-03T23:35:20.335Z,100216.65
2022-08-03T23:39:29.228Z,100218.21
2022-08-03T23:43:50.974Z,100216.73
2022-08-03T23:47:59.941Z,100218.50
2022-08-03T23:52:14.847Z,100218.83
2022-08-03T23:56:29.565Z,100220.66
